Laona, Minnesota
Current Conditions -  °F | °C
As of 6:14 PM on Monday 20 Oct 2014 (Local Time) from KRRT Reporting Station
Clear Clear  
Wind Chill: 41°   Ceiling: Unl
Heat Index: 45°   Visibility: 10mi
Dew Point: 39°   Wind: 6mph
Humidity: 81%   Direction: 70°ENE
Pressure: 30.08"   Gusts: NA
Location:  48.6345°N, 95.1786°W
Report Text: KRRT 202314Z AUTO 07005KT 10SM CLR 07/04 A3008 RMK AO2
Loading
Personal Weather Stations






























Interactive Weather Map
Tropical Storm Tracking
New forecast layout! Learn more

10-Day Weather Forecast

Advertisements
Track Severe Weather on mobile